createdAt,value
2019-02-18T00:02:25.264Z,45.17
2019-02-18T00:04:53.944Z,37.75
2019-02-18T00:07:22.720Z,38.55
2019-02-18T00:09:51.519Z,36.48
2019-02-18T00:12:20.306Z,45.28
2019-02-18T00:14:49.107Z,43.68
2019-02-18T00:17:17.792Z,40.40
2019-02-18T00:19:46.662Z,40.73
2019-02-18T00:22:15.362Z,36.53
2019-02-18T00:24:44.147Z,35.75
2019-02-18T00:27:12.853Z,39.73
2019-02-18T00:29:41.536Z,36.08
2019-02-18T00:32:10.227Z,33.28
2019-02-18T00:34:38.895Z,35.10
2019-02-18T00:37:07.582Z,32.83
2019-02-18T00:39:36.296Z,36.75
2019-02-18T00:42:04.995Z,41.50
2019-02-18T00:44:33.702Z,45.58
2019-02-18T00:47:02.415Z,36.55
2019-02-18T00:49:31.122Z,36.42
2019-02-18T00:51:59.802Z,31.42
2019-02-18T00:54:28.574Z,33.42
2019-02-18T00:56:57.268Z,30.40
2019-02-18T00:59:25.992Z,32.85
2019-02-18T01:01:54.656Z,37.00
2019-02-18T01:04:23.358Z,36.75
2019-02-18T01:06:52.055Z,37.60
2019-02-18T01:09:20.771Z,37.35
2019-02-18T01:11:49.772Z,30.72
2019-02-18T01:14:18.472Z,28.92
2019-02-18T01:16:47.140Z,25.77
2019-02-18T01:19:15.892Z,32.33
2019-02-18T01:21:44.575Z,29.02
2019-02-18T01:24:13.256Z,29.57
2019-02-18T01:26:42.119Z,32.08
2019-02-18T01:29:10.800Z,29.85
2019-02-18T01:31:39.564Z,30.15
2019-02-18T01:34:08.246Z,32.08
2019-02-18T01:36:37.141Z,32.53
2019-02-18T01:39:06.423Z,30.20
2019-02-18T01:41:35.130Z,34.48
2019-02-18T01:44:03.836Z,33.63
2019-02-18T01:46:32.512Z,28.12
2019-02-18T01:49:01.294Z,25.50
2019-02-18T01:51:30.079Z,30.17
2019-02-18T01:53:58.770Z,29.20
2019-02-18T01:56:27.471Z,28.77
2019-02-18T01:58:56.243Z,26.68
2019-02-18T02:01:25.027Z,33.58
2019-02-18T02:03:53.805Z,30.15
2019-02-18T02:06:22.788Z,27.82
2019-02-18T02:08:51.535Z,31.30
2019-02-18T02:11:23.338Z,29.80
2019-02-18T02:13:52.339Z,34.63
2019-02-18T02:16:21.046Z,33.25
2019-02-18T02:18:49.808Z,29.90
2019-02-18T02:21:18.512Z,28.55
2019-02-18T02:23:47.314Z,26.42
2019-02-18T02:26:15.964Z,26.93
2019-02-18T02:28:44.752Z,30.30
2019-02-18T02:31:13.540Z,29.55
2019-02-18T02:33:42.280Z,31.52
2019-02-18T02:36:10.964Z,30.50
2019-02-18T02:38:39.707Z,31.95
2019-02-18T02:41:08.524Z,25.17
2019-02-18T02:43:37.274Z,25.70
2019-02-18T02:46:06.066Z,30.50
2019-02-18T02:48:34.866Z,29.30
2019-02-18T02:51:03.647Z,25.05
2019-02-18T02:53:32.334Z,30.20
2019-02-18T02:56:01.114Z,29.32
2019-02-18T02:58:29.798Z,25.50
2019-02-18T03:00:58.600Z,27.95
2019-02-18T03:03:27.364Z,30.20
2019-02-18T03:05:56.170Z,28.62
2019-02-18T03:08:25.183Z,28.80
2019-02-18T03:10:53.979Z,25.17
2019-02-18T03:13:22.743Z,26.52
2019-02-18T03:15:51.734Z,33.45
2019-02-18T03:18:20.527Z,26.82
2019-02-18T03:20:49.292Z,31.33
2019-02-18T03:23:17.978Z,31.50
2019-02-18T03:25:48.081Z,26.37
2019-02-18T03:28:36.226Z,27.07
2019-02-18T03:31:11.161Z,24.23
2019-02-18T03:33:43.220Z,25.52
2019-02-18T03:36:11.938Z,29.75
2019-02-18T03:38:40.626Z,25.55
2019-02-18T03:41:09.399Z,26.45
2019-02-18T03:43:38.185Z,27.40
2019-02-18T03:46:06.971Z,27.40
2019-02-18T03:48:35.964Z,30.25
2019-02-18T03:51:04.757Z,27.37
2019-02-18T03:53:33.534Z,27.40
2019-02-18T03:56:02.328Z,25.90
2019-02-18T03:58:31.124Z,26.73
2019-02-18T04:00:59.823Z,27.13
2019-02-18T04:03:28.694Z,28.85
2019-02-18T04:05:57.395Z,21.55
2019-02-18T04:08:26.179Z,24.00
2019-02-18T04:10:55.166Z,24.80
2019-02-18T04:13:23.912Z,28.25
2019-02-18T04:15:52.743Z,22.90
2019-02-18T04:18:21.516Z,23.52
2019-02-18T04:20:50.430Z,30.88
2019-02-18T04:23:19.224Z,23.40
2019-02-18T04:25:48.188Z,23.42
2019-02-18T04:28:16.974Z,27.27
2019-02-18T04:30:45.763Z,26.20
2019-02-18T04:33:14.472Z,24.05
2019-02-18T04:35:43.249Z,24.23
2019-02-18T04:38:11.941Z,24.15
2019-02-18T04:40:40.711Z,25.37
2019-02-18T04:43:09.495Z,24.98
2019-02-18T04:45:38.292Z,28.98
2019-02-18T04:48:07.285Z,24.63
2019-02-18T04:50:35.972Z,25.32
2019-02-18T04:53:04.756Z,24.70
2019-02-18T04:55:33.554Z,25.35
2019-02-18T04:58:02.336Z,21.20
2019-02-18T05:00:32.253Z,25.27
2019-02-18T05:03:00.974Z,22.27
2019-02-18T05:05:31.248Z,25.65
2019-02-18T05:08:00.043Z,28.92
2019-02-18T05:10:28.731Z,24.75
2019-02-18T05:12:57.529Z,27.27
2019-02-18T05:15:26.214Z,21.93
2019-02-18T05:17:55.006Z,26.17
2019-02-18T05:20:23.794Z,22.10
2019-02-18T05:22:52.567Z,24.95
2019-02-18T05:25:21.295Z,24.20
2019-02-18T05:27:50.143Z,20.40
2019-02-18T05:30:18.841Z,21.97
2019-02-18T05:32:47.820Z,19.95
2019-02-18T05:35:16.760Z,21.85
2019-02-18T05:37:45.609Z,24.98
2019-02-18T05:40:14.632Z,22.10
2019-02-18T05:42:43.542Z,26.68
2019-02-18T05:45:12.525Z,22.90
2019-02-18T05:47:41.319Z,26.57
2019-02-18T05:50:10.093Z,22.20
2019-02-18T05:52:38.992Z,26.77
2019-02-18T05:55:08.082Z,24.60
2019-02-18T05:57:36.972Z,28.85
2019-02-18T06:00:11.143Z,26.25
2019-02-18T06:02:39.873Z,24.27
2019-02-18T06:05:08.768Z,25.25
2019-02-18T06:07:37.547Z,20.97
2019-02-18T06:10:08.745Z,28.70
2019-02-18T06:12:37.442Z,27.25
2019-02-18T06:15:08.753Z,27.37
2019-02-18T06:17:37.442Z,26.65
2019-02-18T06:20:08.653Z,27.62
2019-02-18T06:22:38.742Z,43.85
2019-02-18T06:25:07.905Z,47.58
2019-02-18T06:27:36.863Z,51.08
2019-02-18T06:30:08.103Z,48.08
2019-02-18T06:32:37.069Z,45.35
2019-02-18T06:35:06.706Z,41.48
2019-02-18T06:37:35.908Z,38.20
2019-02-18T06:40:06.870Z,38.23
2019-02-18T06:42:35.787Z,37.25
2019-02-18T06:45:24.663Z,43.65
2019-02-18T06:47:54.527Z,34.45
2019-02-18T06:50:24.216Z,34.53
2019-02-18T06:52:53.167Z,37.63
2019-02-18T06:55:22.092Z,36.05
2019-02-18T06:58:01.325Z,35.00
2019-02-18T07:00:40.361Z,37.03
2019-02-18T07:03:10.782Z,29.92
2019-02-18T07:05:46.942Z,35.05
2019-02-18T07:08:17.373Z,33.90
2019-02-18T07:10:47.702Z,32.53
2019-02-18T07:13:16.464Z,30.10
2019-02-18T07:15:45.279Z,33.25
2019-02-18T07:18:14.162Z,170.05
2019-02-18T07:20:42.843Z,87.00
2019-02-18T07:23:11.614Z,81.20
2019-02-18T07:25:42.861Z,74.20
2019-02-18T07:28:11.663Z,77.97
2019-02-18T07:30:40.453Z,72.50
2019-02-18T07:33:09.245Z,66.60
2019-02-18T07:35:38.013Z,57.20
2019-02-18T07:38:06.812Z,58.90
2019-02-18T07:40:35.592Z,56.42
2019-02-18T07:43:04.372Z,53.68
2019-02-18T07:45:33.209Z,54.95
2019-02-18T07:48:01.962Z,48.30
2019-02-18T07:50:31.426Z,48.90
2019-02-18T07:53:00.780Z,45.88
2019-02-18T07:55:29.682Z,50.67
2019-02-18T07:58:10.855Z,44.50
2019-02-18T08:00:40.993Z,37.35
2019-02-18T08:03:09.848Z,41.70
2019-02-18T08:05:38.742Z,40.48
2019-02-18T08:08:07.650Z,33.78
2019-02-18T08:10:36.506Z,41.30
2019-02-18T08:13:05.306Z,40.33
2019-02-18T08:15:34.153Z,53.20
2019-02-18T08:18:03.313Z,36.55
2019-02-18T08:20:32.279Z,34.90
2019-02-18T08:23:01.392Z,28.95
2019-02-18T08:25:30.398Z,30.32
2019-02-18T08:27:59.160Z,37.50
2019-02-18T08:30:27.943Z,27.32
2019-02-18T08:32:56.843Z,30.60
2019-02-18T08:35:25.928Z,28.35
2019-02-18T08:37:54.719Z,30.30
2019-02-18T08:40:23.462Z,29.15
2019-02-18T08:42:52.291Z,24.95
2019-02-18T08:45:21.086Z,29.25
2019-02-18T08:47:49.871Z,25.27
2019-02-18T08:50:18.651Z,22.60
2019-02-18T08:52:47.510Z,28.80
2019-02-18T08:55:16.442Z,29.27
2019-02-18T08:57:45.328Z,31.25
2019-02-18T09:00:16.856Z,25.43
2019-02-18T09:02:45.567Z,23.22
2019-02-18T09:05:14.382Z,26.05
2019-02-18T09:07:53.775Z,28.87
2019-02-18T09:10:33.210Z,26.87
2019-02-18T09:12:54.187Z,19.87
2019-02-18T09:15:22.905Z,24.20
2019-02-18T09:17:51.987Z,27.77
2019-02-18T09:20:20.711Z,24.82
2019-02-18T09:22:53.708Z,22.40
2019-02-18T09:25:27.120Z,22.22
2019-02-18T09:27:55.788Z,27.00
2019-02-18T09:30:27.365Z,24.50
2019-02-18T09:32:56.107Z,25.57
2019-02-18T09:35:24.787Z,20.45
2019-02-18T09:37:53.589Z,20.20
2019-02-18T09:40:22.316Z,31.70
2019-02-18T09:42:51.035Z,29.10
2019-02-18T09:45:19.753Z,20.45
2019-02-18T09:47:48.407Z,37.55
2019-02-18T09:50:17.198Z,24.47
2019-02-18T09:52:46.100Z,22.70
2019-02-18T09:55:14.796Z,23.60
2019-02-18T09:57:43.475Z,23.87
2019-02-18T10:00:12.890Z,24.05
2019-02-18T10:02:41.598Z,27.02
2019-02-18T10:05:10.396Z,20.17
2019-02-18T10:07:39.250Z,28.70
2019-02-18T10:10:10.488Z,22.98
2019-02-18T10:12:39.282Z,25.65
2019-02-18T10:15:10.298Z,26.40
2019-02-18T10:17:39.107Z,23.62
2019-02-18T10:20:13.108Z,27.37
2019-02-18T10:22:41.890Z,23.83
2019-02-18T10:25:12.209Z,76.02
2019-02-18T10:27:40.988Z,33.00
2019-02-18T10:30:11.458Z,28.25
2019-02-18T10:32:40.331Z,37.45
2019-02-18T10:35:11.249Z,33.70
2019-02-18T10:37:40.088Z,29.35
2019-02-18T10:40:10.167Z,35.83
2019-02-18T10:42:39.168Z,24.40
2019-02-18T10:45:12.578Z,28.90
2019-02-18T10:47:41.349Z,29.23
2019-02-18T10:50:11.285Z,33.50
2019-02-18T10:52:40.056Z,34.95
2019-02-18T10:55:12.528Z,32.40
2019-02-18T10:57:41.617Z,29.92
2019-02-18T11:00:17.609Z,28.15
2019-02-18T11:02:48.108Z,24.27
2019-02-18T11:05:16.928Z,30.02
2019-02-18T11:07:45.787Z,30.37
2019-02-18T11:10:16.692Z,24.23
2019-02-18T11:12:47.659Z,24.70
2019-02-18T11:15:16.758Z,24.43
2019-02-18T11:17:46.372Z,22.70
2019-02-18T11:20:16.802Z,22.77
2019-02-18T11:22:45.468Z,26.27
2019-02-18T11:25:15.397Z,25.92
2019-02-18T11:27:44.168Z,27.85
2019-02-18T11:30:17.068Z,28.23
2019-02-18T11:32:45.847Z,27.58
2019-02-18T11:35:15.565Z,44.03
2019-02-18T11:37:44.247Z,29.92
2019-02-18T11:40:18.041Z,28.85
2019-02-18T11:42:46.764Z,28.40
2019-02-18T11:45:17.449Z,26.45
2019-02-18T11:47:46.128Z,28.92
2019-02-18T11:50:15.366Z,43.30
2019-02-18T11:52:44.247Z,29.23
2019-02-18T11:55:13.891Z,33.73
2019-02-18T11:57:43.100Z,29.42
2019-02-18T12:00:13.435Z,30.52
2019-02-18T12:02:42.122Z,33.45
2019-02-18T12:05:11.360Z,30.92
2019-02-18T12:07:40.124Z,30.60
2019-02-18T12:10:13.412Z,40.15
2019-02-18T12:12:42.444Z,31.25
2019-02-18T12:15:15.966Z,40.35
2019-02-18T12:17:44.814Z,35.45
2019-02-18T12:20:15.364Z,37.95
2019-02-18T12:22:44.121Z,39.67
2019-02-18T12:25:13.495Z,37.00
2019-02-18T12:27:42.632Z,39.95
2019-02-18T12:30:13.439Z,38.48
2019-02-18T12:32:42.250Z,32.25
2019-02-18T12:35:11.016Z,34.50
2019-02-18T12:37:39.750Z,42.30
2019-02-18T12:40:13.474Z,48.08
2019-02-18T12:42:42.642Z,43.35
2019-02-18T12:45:13.403Z,41.20
2019-02-18T12:47:42.268Z,45.88
2019-02-18T12:50:11.961Z,30.92
2019-02-18T12:52:40.691Z,35.20
2019-02-18T12:55:10.546Z,37.80
2019-02-18T12:57:39.666Z,35.55
2019-02-18T13:00:11.350Z,32.05
2019-02-18T13:02:44.360Z,49.83
2019-02-18T13:05:11.251Z,36.77
2019-02-18T13:07:39.963Z,44.70
2019-02-18T13:10:09.952Z,33.13
2019-02-18T13:12:38.643Z,39.35
2019-02-18T13:15:10.913Z,41.83
2019-02-18T13:17:39.720Z,37.35
2019-02-18T13:20:08.861Z,33.88
2019-02-18T13:22:37.544Z,34.63
2019-02-18T13:25:07.539Z,43.30
2019-02-18T13:27:36.244Z,35.60
2019-02-18T13:30:19.727Z,34.73
2019-02-18T13:32:48.419Z,33.13
2019-02-18T13:35:17.207Z,34.13
2019-02-18T13:37:45.941Z,32.78
2019-02-18T13:40:16.199Z,26.05
2019-02-18T13:42:45.426Z,35.80
2019-02-18T13:45:14.156Z,24.40
2019-02-18T13:47:42.836Z,25.05
2019-02-18T13:50:12.833Z,27.17
2019-02-18T13:52:41.558Z,27.60
2019-02-18T13:55:11.640Z,34.10
2019-02-18T13:57:40.726Z,34.13
2019-02-18T14:00:14.254Z,36.85
2019-02-18T14:02:42.962Z,37.78
2019-02-18T14:05:11.682Z,32.40
2019-02-18T14:07:40.392Z,30.70
2019-02-18T14:10:09.076Z,30.85
2019-02-18T14:12:38.177Z,30.62
2019-02-18T14:15:09.775Z,31.12
2019-02-18T14:17:38.459Z,40.50
2019-02-18T14:20:10.295Z,44.25
2019-02-18T14:22:38.956Z,52.48
2019-02-18T14:25:09.287Z,47.80
2019-02-18T14:27:37.967Z,42.73
2019-02-18T14:30:14.971Z,39.55
2019-02-18T14:32:43.657Z,46.63
2019-02-18T14:35:12.436Z,36.45
2019-02-18T14:37:41.347Z,37.38
2019-02-18T14:40:12.006Z,31.90
2019-02-18T14:42:40.748Z,51.00
2019-02-18T14:45:09.971Z,32.45
2019-02-18T14:47:38.859Z,44.27
2019-02-18T14:50:10.656Z,41.28
2019-02-18T14:52:39.351Z,42.55
2019-02-18T14:55:09.116Z,34.05
2019-02-18T14:57:38.100Z,37.03
2019-02-18T15:00:12.820Z,27.02
2019-02-18T15:02:41.620Z,28.10
2019-02-18T15:05:10.401Z,35.95
2019-02-18T15:07:39.290Z,45.15
2019-02-18T15:10:09.811Z,24.98
2019-02-18T15:12:38.518Z,38.38
2019-02-18T15:15:07.329Z,32.70
2019-02-18T15:17:36.069Z,43.60
2019-02-18T15:20:06.428Z,45.70
2019-02-18T15:22:35.480Z,35.85
2019-02-18T15:25:05.469Z,40.67
2019-02-18T15:27:34.197Z,34.67
2019-02-18T15:30:03.376Z,32.95
2019-02-18T15:32:32.048Z,39.33
2019-02-18T15:35:00.740Z,33.23
2019-02-18T15:37:29.478Z,30.43
2019-02-18T15:39:58.208Z,30.85
2019-02-18T15:42:26.933Z,30.97
2019-02-18T15:44:55.718Z,35.33
2019-02-18T15:47:24.491Z,26.12
2019-02-18T15:49:53.192Z,28.60
2019-02-18T15:52:21.881Z,27.70
2019-02-18T15:54:50.585Z,34.48
2019-02-18T15:57:20.261Z,34.50
2019-02-18T15:59:48.963Z,25.15
2019-02-18T16:02:17.758Z,33.58
2019-02-18T16:04:46.488Z,44.70
2019-02-18T16:07:15.188Z,40.15
2019-02-18T16:09:48.807Z,39.78
2019-02-18T16:12:17.514Z,42.58
2019-02-18T16:14:46.254Z,59.35
2019-02-18T16:17:14.931Z,103.02
2019-02-18T16:19:43.647Z,83.70
2019-02-18T16:22:12.326Z,64.00
2019-02-18T16:24:41.424Z,61.80
2019-02-18T16:27:10.110Z,52.90
2019-02-18T16:29:38.806Z,54.00
2019-02-18T16:32:07.498Z,49.18
2019-02-18T16:34:36.196Z,43.10
2019-02-18T16:37:05.363Z,42.83
2019-02-18T16:39:35.011Z,49.75
2019-02-18T16:42:03.915Z,54.58
2019-02-18T16:44:32.632Z,45.92
2019-02-18T16:47:01.370Z,48.95
2019-02-18T16:49:30.042Z,56.70
2019-02-18T16:52:01.605Z,53.85
2019-02-18T16:54:30.474Z,51.15
2019-02-18T16:56:59.157Z,57.08
2019-02-18T16:59:27.871Z,53.73
2019-02-18T17:01:56.623Z,53.87
2019-02-18T17:04:27.278Z,53.08
2019-02-18T17:06:55.680Z,61.23
2019-02-18T17:09:24.651Z,45.88
2019-02-18T17:11:53.400Z,59.95
2019-02-18T17:14:23.120Z,43.78
2019-02-18T17:16:51.882Z,42.50
2019-02-18T17:19:20.596Z,47.62
2019-02-18T17:21:49.253Z,34.27
2019-02-18T17:24:18.384Z,46.23
2019-02-18T17:26:47.047Z,53.68
2019-02-18T17:29:15.694Z,44.38
2019-02-18T17:31:44.411Z,53.83
2019-02-18T17:34:13.092Z,59.67
2019-02-18T17:36:41.804Z,42.53
2019-02-18T17:39:10.492Z,47.03
2019-02-18T17:41:39.242Z,41.02
2019-02-18T17:44:07.923Z,45.23
2019-02-18T17:46:36.650Z,37.60
2019-02-18T17:49:05.302Z,47.35
2019-02-18T17:51:34.037Z,44.90
2019-02-18T17:54:02.921Z,43.28
2019-02-18T17:56:31.992Z,32.48
2019-02-18T17:59:00.712Z,35.88
2019-02-18T18:01:29.542Z,43.23
2019-02-18T18:03:58.242Z,51.15
2019-02-18T18:06:26.862Z,69.40
2019-02-18T18:08:55.557Z,58.68
2019-02-18T18:11:24.242Z,39.35
2019-02-18T18:13:52.984Z,50.52
2019-02-18T18:16:21.673Z,25.57
2019-02-18T18:18:50.471Z,34.55
2019-02-18T18:21:19.172Z,34.27
2019-02-18T18:23:47.865Z,45.43
2019-02-18T18:26:16.532Z,61.85
2019-02-18T18:28:45.253Z,69.22
2019-02-18T18:31:13.978Z,43.83
2019-02-18T18:33:42.644Z,34.80
2019-02-18T18:36:11.350Z,50.78
2019-02-18T18:38:40.032Z,66.00
2019-02-18T18:41:08.729Z,43.90
2019-02-18T18:43:37.510Z,43.52
2019-02-18T18:46:06.196Z,45.20
2019-02-18T18:48:34.935Z,41.40
2019-02-18T18:51:03.644Z,37.98
2019-02-18T18:53:32.335Z,47.93
2019-02-18T18:56:01.075Z,28.77
2019-02-18T18:58:30.165Z,46.25
2019-02-18T19:00:58.891Z,46.00
2019-02-18T19:03:27.568Z,40.35
2019-02-18T19:05:56.257Z,43.30
2019-02-18T19:08:24.984Z,28.10
2019-02-18T19:10:53.655Z,37.45
2019-02-18T19:13:22.716Z,31.15
2019-02-18T19:15:51.456Z,53.28
2019-02-18T19:18:20.136Z,34.35
2019-02-18T19:20:49.875Z,44.38
2019-02-18T19:23:18.566Z,38.10
2019-02-18T19:25:47.235Z,34.25
2019-02-18T19:28:16.087Z,39.27
2019-02-18T19:30:45.030Z,34.60
2019-02-18T19:33:13.725Z,37.78
2019-02-18T19:35:42.486Z,33.92
2019-02-18T19:38:11.176Z,37.90
2019-02-18T19:40:39.925Z,38.05
2019-02-18T19:43:08.974Z,35.88
2019-02-18T19:45:37.665Z,44.73
2019-02-18T19:48:06.405Z,43.83
2019-02-18T19:50:35.129Z,31.65
2019-02-18T19:53:03.855Z,40.55
2019-02-18T19:55:32.546Z,36.80
2019-02-18T19:58:01.397Z,30.55
2019-02-18T20:00:30.095Z,35.78
2019-02-18T20:02:58.877Z,30.65
2019-02-18T20:05:27.575Z,33.30
2019-02-18T20:07:56.326Z,38.25
2019-02-18T20:10:25.028Z,33.02
2019-02-18T20:12:54.155Z,32.15
2019-02-18T20:15:22.965Z,33.92
2019-02-18T20:17:51.693Z,36.20
2019-02-18T20:20:20.454Z,42.13
2019-02-18T20:22:49.186Z,29.15
2019-02-18T20:25:17.886Z,31.33
2019-02-18T20:27:47.008Z,36.42
2019-02-18T20:30:18.656Z,31.82
2019-02-18T20:32:47.473Z,39.33
2019-02-18T20:35:16.276Z,30.48
2019-02-18T20:37:44.985Z,38.83
2019-02-18T20:40:14.747Z,29.07
2019-02-18T20:42:43.833Z,35.90
2019-02-18T20:45:13.397Z,35.13
2019-02-18T20:47:42.161Z,30.08
2019-02-18T20:50:12.383Z,34.70
2019-02-18T20:52:43.265Z,29.20
2019-02-18T20:55:13.381Z,31.85
2019-02-18T20:57:42.096Z,38.15
2019-02-18T21:00:19.936Z,35.60
2019-02-18T21:02:48.688Z,31.52
2019-02-18T21:05:17.415Z,34.03
2019-02-18T21:07:46.115Z,31.93
2019-02-18T21:10:20.171Z,33.42
2019-02-18T21:12:48.858Z,39.48
2019-02-18T21:15:17.564Z,31.52
2019-02-18T21:17:48.979Z,32.20
2019-02-18T21:20:18.658Z,33.40
2019-02-18T21:22:47.875Z,34.95
2019-02-18T21:25:16.591Z,31.73
2019-02-18T21:27:47.305Z,44.53
2019-02-18T21:30:17.092Z,42.83
2019-02-18T21:32:45.792Z,42.20
2019-02-18T21:35:14.628Z,28.38
2019-02-18T21:37:43.823Z,40.23
2019-02-18T21:40:12.611Z,42.05
2019-02-18T21:42:41.390Z,30.65
2019-02-18T21:45:12.869Z,42.05
2019-02-18T21:47:41.602Z,33.15
2019-02-18T21:50:10.805Z,36.38
2019-02-18T21:52:40.098Z,28.83
2019-02-18T21:55:10.211Z,28.40
2019-02-18T21:57:38.900Z,30.70
2019-02-18T22:00:12.267Z,28.65
2019-02-18T22:02:41.837Z,31.73
2019-02-18T22:05:10.587Z,28.92
2019-02-18T22:07:39.274Z,36.73
2019-02-18T22:10:09.294Z,39.98
2019-02-18T22:12:37.986Z,28.05
2019-02-18T22:15:08.476Z,43.95
2019-02-18T22:17:37.295Z,33.67
2019-02-18T22:20:08.714Z,36.83
2019-02-18T22:22:37.734Z,31.33
2019-02-18T22:25:11.083Z,31.25
2019-02-18T22:27:39.755Z,33.08
2019-02-18T22:30:11.647Z,25.45
2019-02-18T22:32:40.348Z,32.23
2019-02-18T22:35:09.029Z,35.17
2019-02-18T22:37:38.047Z,34.23
2019-02-18T22:40:08.645Z,29.37
2019-02-18T22:42:37.351Z,33.73
2019-02-18T22:45:07.343Z,29.27
2019-02-18T22:47:36.055Z,35.43
2019-02-18T22:50:04.963Z,30.17
2019-02-18T22:52:34.055Z,26.12
2019-02-18T22:55:02.819Z,28.50
2019-02-18T22:57:31.512Z,34.43
2019-02-18T23:00:00.264Z,27.90
2019-02-18T23:02:29.019Z,31.17
2019-02-18T23:04:57.708Z,30.85
2019-02-18T23:07:26.415Z,25.82
2019-02-18T23:09:55.099Z,27.22
2019-02-18T23:12:23.834Z,30.17
2019-02-18T23:14:52.530Z,30.27
2019-02-18T23:17:21.223Z,29.55
2019-02-18T23:19:49.934Z,26.00
2019-02-18T23:22:18.634Z,34.88
2019-02-18T23:24:47.623Z,31.97
2019-02-18T23:27:16.498Z,27.93
2019-02-18T23:29:45.365Z,33.33
2019-02-18T23:32:14.122Z,31.30
2019-02-18T23:34:42.811Z,31.35
2019-02-18T23:37:11.500Z,31.55
2019-02-18T23:39:40.204Z,33.08
2019-02-18T23:42:08.904Z,32.05
2019-02-18T23:44:37.888Z,25.12
2019-02-18T23:47:06.652Z,31.90
2019-02-18T23:49:35.334Z,29.27
2019-02-18T23:52:04.137Z,39.30
2019-02-18T23:54:32.827Z,28.95
2019-02-18T23:57:01.506Z,29.27
2019-02-18T23:59:30.224Z,31.40
